Monday, August 20, 2018, 8:43 AM EDT
Back to Local

KBGR, Bangor Int'l Airport

Location: Bangor, ME, United States Lat: 44.8
Local Time: 8:43 AM EDT (12:43 GMT) Lon: -68.817
Time Zone: US/Eastern Elev: 193 ft

Show me the last for .
Show Decoded

2018-08-20 07:53 METAR KBGR 201153Z 01005KT 10SM BKN055 BKN150 16/14 A3023 RMK AO2 SLP235
                 T01610144 10161 20133 51017 =
2018-08-20 06:53 METAR KBGR 201053Z 02006KT 7SM BKN055 BKN150 15/14 A3023 RMK AO2 SLP233
                 T01500139 =
2018-08-20 05:53 METAR KBGR 200953Z 35005KT 7SM SCT050 BKN150 14/14 A3021 RMK AO2 SLP226
                 T01440139 =
2018-08-20 04:53 METAR KBGR 200853Z 01004KT 10SM FEW060 SCT150 14/13 A3018 RMK AO2 SLP217
                 T01440133 53003 =
2018-08-20 03:53 METAR KBGR 200753Z 01004KT 10SM CLR 14/13 A3017 RMK AO2 SLP213 T01440133 =
2018-08-20 02:53 METAR KBGR 200653Z 00000KT 10SM FEW055 16/14 A3017 RMK AO2 SLP215 T01560144 =
2018-08-20 01:53 METAR KBGR 200553Z 35003KT 10SM BKN060 15/14 A3017 RMK AO2 SLP215 T01500139
                 10200 20139 51005 =
2018-08-20 00:53 METAR KBGR 200453Z 00000KT 10SM BKN060 17/14 A3017 RMK AO2 SLP213 T01670139
                 402610117 =
2018-08-19 23:53 METAR KBGR 200353Z 00000KT 10SM BKN055 16/14 A3017 RMK AO2 SLP212 T01610144 =
2018-08-19 22:53 METAR KBGR 200253Z 06003KT 10SM FEW020 FEW050 SCT200 16/14 A3016 RMK AO2 SLP211
                 T01610139 51010 =
2018-08-19 21:53 METAR KBGR 200153Z 00000KT 10SM FEW050 SCT200 17/14 A3016 RMK AO2 SLP210
                 T01670139 =
2018-08-19 20:53 METAR KBGR 200053Z 04004KT 10SM FEW050 SCT200 18/14 A3015 RMK AO2 SLP209
                 T01830139 =
2018-08-19 19:53 METAR KBGR 192353Z 08003KT 10SM FEW050 BKN200 20/13 A3013 RMK AO2 SLP201
                 T02000133 10261 20200 53018 =
2018-08-19 18:53 METAR KBGR 192253Z 08006KT 10SM FEW050 BKN200 23/13 A3011 RMK AO2 SLP192
                 T02280133 =
2018-08-19 17:53 METAR KBGR 192153Z 04005KT 10SM SCT050 BKN200 24/13 A3009 RMK AO2 SLP189
                 T02390128 =
2018-08-19 16:53 METAR KBGR 192053Z 04007KT 10SM BKN055 BKN200 24/12 A3008 RMK AO2 SLP183
                 T02440117 56004 =
2018-08-19 15:53 METAR KBGR 191953Z 06008KT 10SM BKN050 24/12 A3008 RMK AO2 SLP184 T02440122 =
2018-08-19 14:53 METAR KBGR 191853Z 02009G20KT 10SM BKN043 26/12 A3008 RMK AO2 SLP182 T02560122 =
2018-08-19 13:53 METAR KBGR 191753Z 03015G18KT 10SM BKN043 BKN200 24/13 A3009 RMK AO2 SLP186
                 T02440133 10250 20172 55002 =
2018-08-19 12:53 METAR KBGR 191653Z 06014KT 10SM SCT032 SCT200 24/14 A3009 RMK AO2 SLP186
                 T02390139 =
2018-08-19 11:53 METAR KBGR 191553Z 01010KT 10SM SCT020 SCT200 22/14 A3009 RMK AO2 SLP188
                 T02220144 =
2018-08-19 10:53 METAR KBGR 191453Z 06008KT 10SM SCT020 SCT200 21/14 A3010 RMK AO2 SLP189
                 T02060144 51013 =
2018-08-19 09:53 METAR KBGR 191353Z 07008KT 10SM SCT020 SCT200 19/14 A3009 RMK AO2 SLP188
                 T01940144 =
2018-08-19 08:53 METAR KBGR 191253Z 06010G16KT 10SM SCT020 SCT200 18/14 A3008 RMK AO2 SLP183
                 T01830139 =

Support USWX by starting your Amazon purchase here.